createdAt,value
2023-01-19T00:00:51.952Z,6.95
2023-01-19T00:03:18.898Z,6.70
2023-01-19T00:05:46.030Z,6.93
2023-01-19T00:08:16.939Z,7.20
2023-01-19T00:10:47.432Z,7.15
2023-01-19T00:13:15.199Z,8.38
2023-01-19T00:15:42.258Z,6.25
2023-01-19T00:18:10.878Z,5.53
2023-01-19T00:20:39.171Z,5.82
2023-01-19T00:23:08.027Z,6.55
2023-01-19T00:25:35.655Z,7.13
2023-01-19T00:28:02.486Z,7.15
2023-01-19T00:30:29.765Z,7.40
2023-01-19T00:32:56.673Z,6.55
2023-01-19T00:35:23.590Z,7.05
2023-01-19T00:37:50.726Z,5.85
2023-01-19T00:40:18.148Z,6.78
2023-01-19T00:42:45.307Z,7.40
2023-01-19T00:45:14.310Z,8.13
2023-01-19T00:47:41.399Z,8.80
2023-01-19T00:50:11.901Z,10.25
2023-01-19T00:52:40.266Z,10.52
2023-01-19T00:55:12.087Z,11.15
2023-01-19T00:57:39.925Z,11.52
2023-01-19T01:00:11.292Z,11.32
2023-01-19T01:02:39.919Z,13.27
2023-01-19T01:05:07.729Z,11.48
2023-01-19T01:07:40.732Z,12.65
2023-01-19T01:10:28.879Z,10.77
2023-01-19T01:13:20.383Z,12.73
2023-01-19T01:15:43.744Z,10.75
2023-01-19T01:18:11.623Z,11.27
2023-01-19T01:20:38.605Z,8.77
2023-01-19T01:23:05.524Z,8.45
2023-01-19T01:25:34.135Z,6.95
2023-01-19T01:28:00.938Z,6.65
2023-01-19T01:30:28.045Z,5.32
2023-01-19T01:32:55.308Z,5.45
2023-01-19T01:35:22.325Z,4.75
2023-01-19T01:37:49.200Z,4.75
2023-01-19T01:40:18.148Z,6.50
2023-01-19T01:42:45.786Z,4.70
2023-01-19T01:45:30.666Z,3.72
2023-01-19T01:48:12.495Z,2.83
2023-01-19T01:51:06.762Z,3.20
2023-01-19T01:53:34.798Z,4.35
2023-01-19T01:56:04.855Z,4.30
2023-01-19T01:58:33.946Z,2.00
2023-01-19T02:01:19.429Z,2.15
2023-01-19T02:03:46.492Z,2.88
2023-01-19T02:06:14.546Z,3.40
2023-01-19T02:09:13.294Z,2.97
2023-01-19T02:12:00.220Z,3.85
2023-01-19T02:14:27.311Z,1.45
2023-01-19T02:16:54.323Z,1.63
2023-01-19T02:19:28.077Z,1.55
2023-01-19T02:22:06.081Z,2.13
2023-01-19T02:24:33.219Z,2.03
2023-01-19T02:27:00.429Z,3.70
2023-01-19T02:29:28.787Z,2.67
2023-01-19T02:31:57.876Z,2.78
2023-01-19T02:34:24.775Z,2.72
2023-01-19T02:37:06.754Z,2.03
2023-01-19T02:39:42.978Z,4.93
2023-01-19T02:42:15.441Z,1.98
2023-01-19T02:44:46.803Z,1.50
2023-01-19T02:47:14.095Z,2.67
2023-01-19T02:49:40.995Z,3.45
2023-01-19T02:52:15.572Z,2.25
2023-01-19T02:54:55.341Z,2.22
2023-01-19T02:57:31.576Z,2.10
2023-01-19T03:00:25.251Z,3.17
2023-01-19T03:03:10.593Z,1.75
2023-01-19T03:05:57.021Z,2.50
2023-01-19T03:08:31.527Z,3.85
2023-01-19T03:11:27.567Z,3.33
2023-01-19T03:14:18.279Z,2.75
2023-01-19T03:16:55.263Z,1.30
2023-01-19T03:19:49.527Z,1.65
2023-01-19T03:22:26.707Z,0.90
2023-01-19T03:24:56.663Z,3.67
2023-01-19T03:27:40.927Z,1.85
2023-01-19T03:30:12.719Z,1.42
2023-01-19T03:32:52.792Z,1.80
2023-01-19T03:35:22.533Z,1.55
2023-01-19T03:37:53.324Z,2.40
2023-01-19T03:40:21.320Z,1.38
2023-01-19T03:42:50.366Z,2.15
2023-01-19T03:45:18.368Z,1.20
2023-01-19T03:47:45.706Z,1.85
2023-01-19T03:50:20.897Z,1.98
2023-01-19T03:53:01.840Z,2.03
2023-01-19T03:55:29.140Z,2.13
2023-01-19T03:57:55.877Z,1.63
2023-01-19T04:00:22.800Z,2.42
2023-01-19T04:02:49.742Z,3.28
2023-01-19T04:05:16.565Z,2.28
2023-01-19T04:07:43.498Z,1.23
2023-01-19T04:10:12.905Z,3.40
2023-01-19T04:12:42.972Z,1.23
2023-01-19T04:15:09.921Z,2.15
2023-01-19T04:17:36.741Z,1.08
2023-01-19T04:20:04.046Z,0.35
2023-01-19T04:22:30.894Z,2.22
2023-01-19T04:24:57.780Z,0.93
2023-01-19T04:27:26.172Z,1.08
2023-01-19T04:29:53.214Z,0.77
2023-01-19T04:32:20.091Z,0.95
2023-01-19T04:34:47.008Z,0.95
2023-01-19T04:37:14.121Z,1.27
2023-01-19T04:39:41.043Z,1.95
2023-01-19T04:42:07.922Z,2.30
2023-01-19T04:44:34.791Z,1.45
2023-01-19T04:47:02.632Z,0.40
2023-01-19T04:49:29.551Z,3.20
2023-01-19T04:51:56.631Z,1.60
2023-01-19T04:54:23.586Z,1.38
2023-01-19T04:56:50.536Z,1.58
2023-01-19T04:59:17.560Z,1.20
2023-01-19T05:01:44.426Z,1.88
2023-01-19T05:04:12.776Z,1.20
2023-01-19T05:06:39.633Z,0.47
2023-01-19T05:09:09.043Z,1.98
2023-01-19T05:11:36.473Z,1.10
2023-01-19T05:14:03.383Z,2.72
2023-01-19T05:16:30.298Z,1.02
2023-01-19T05:18:57.294Z,1.27
2023-01-19T05:21:24.047Z,1.27
2023-01-19T05:23:50.799Z,0.60
2023-01-19T05:26:17.736Z,1.02
2023-01-19T05:28:44.638Z,1.40
2023-01-19T05:31:11.504Z,0.55
2023-01-19T05:33:38.448Z,2.15
2023-01-19T05:36:05.487Z,1.02
2023-01-19T05:38:36.066Z,1.48
2023-01-19T05:41:03.275Z,2.65
2023-01-19T05:43:30.133Z,1.15
2023-01-19T05:45:56.935Z,1.00
2023-01-19T05:48:23.831Z,1.05
2023-01-19T05:50:51.781Z,2.80
2023-01-19T05:53:18.527Z,0.65
2023-01-19T05:55:45.367Z,0.98
2023-01-19T05:58:12.168Z,3.75
2023-01-19T06:00:38.983Z,2.20
2023-01-19T06:03:06.690Z,1.45
2023-01-19T06:05:34.109Z,3.38
2023-01-19T06:08:01.628Z,1.63
2023-01-19T06:10:28.509Z,0.80
2023-01-19T06:12:55.258Z,1.00
2023-01-19T06:15:41.005Z,0.68
2023-01-19T06:18:07.837Z,1.15
2023-01-19T06:20:35.302Z,0.68
2023-01-19T06:23:02.444Z,0.68
2023-01-19T06:25:29.452Z,0.80
2023-01-19T06:27:56.212Z,0.82
2023-01-19T06:30:23.168Z,1.42
2023-01-19T06:32:50.004Z,1.48
2023-01-19T06:35:16.817Z,1.58
2023-01-19T06:37:43.592Z,1.85
2023-01-19T06:40:13.633Z,0.73
2023-01-19T06:42:41.220Z,0.90
2023-01-19T06:45:10.191Z,1.30
2023-01-19T06:47:37.044Z,2.25
2023-01-19T06:50:04.291Z,1.75
2023-01-19T06:52:31.248Z,3.55
2023-01-19T06:54:58.634Z,2.88
2023-01-19T06:57:25.995Z,3.63
2023-01-19T06:59:52.925Z,1.42
2023-01-19T07:02:26.240Z,1.48
2023-01-19T07:04:55.209Z,3.22
2023-01-19T07:07:21.989Z,1.08
2023-01-19T07:09:48.718Z,1.45
2023-01-19T07:12:15.493Z,0.80
2023-01-19T07:14:42.539Z,10.30
2023-01-19T07:17:09.443Z,0.80
2023-01-19T07:19:36.583Z,0.52
2023-01-19T07:22:03.381Z,0.63
2023-01-19T07:24:38.088Z,0.30
2023-01-19T07:27:05.448Z,0.88
2023-01-19T07:29:32.452Z,1.10
2023-01-19T07:31:59.484Z,0.88
2023-01-19T07:34:26.242Z,0.40
2023-01-19T07:36:53.061Z,4.53
2023-01-19T07:39:19.868Z,1.02
2023-01-19T07:41:48.795Z,1.13
2023-01-19T07:44:15.812Z,1.05
2023-01-19T07:46:43.451Z,1.52
2023-01-19T07:49:10.339Z,1.15
2023-01-19T07:51:37.423Z,0.85
2023-01-19T07:54:04.417Z,0.57
2023-01-19T07:56:33.960Z,0.70
2023-01-19T07:59:01.134Z,1.08
2023-01-19T08:01:28.017Z,1.50
2023-01-19T08:03:54.857Z,1.35
2023-01-19T08:06:24.302Z,1.85
2023-01-19T08:08:51.271Z,0.70
2023-01-19T08:11:18.149Z,0.57
2023-01-19T08:13:44.985Z,2.17
2023-01-19T08:16:11.819Z,0.93
2023-01-19T08:18:38.896Z,0.75
2023-01-19T08:21:06.024Z,1.90
2023-01-19T08:23:33.055Z,4.00
2023-01-19T08:25:59.898Z,2.33
2023-01-19T08:28:27.123Z,1.05
2023-01-19T08:30:54.565Z,4.05
2023-01-19T08:33:25.328Z,2.17
2023-01-19T08:35:53.820Z,1.48
2023-01-19T08:38:20.740Z,2.08
2023-01-19T08:40:49.139Z,2.95
2023-01-19T08:43:17.310Z,3.08
2023-01-19T08:45:50.243Z,2.58
2023-01-19T08:48:19.273Z,3.50
2023-01-19T08:50:47.701Z,2.33
2023-01-19T08:53:15.115Z,2.30
2023-01-19T08:55:42.142Z,3.10
2023-01-19T08:58:09.522Z,2.05
2023-01-19T09:00:38.645Z,2.30
2023-01-19T09:03:07.323Z,3.63
2023-01-19T09:05:37.370Z,2.47
2023-01-19T09:08:06.410Z,3.75
2023-01-19T09:10:36.142Z,4.07
2023-01-19T09:13:05.102Z,2.25
2023-01-19T09:15:35.718Z,2.75
2023-01-19T09:18:04.653Z,2.60
2023-01-19T09:20:31.712Z,1.30
2023-01-19T09:22:58.711Z,2.85
2023-01-19T09:25:25.646Z,2.33
2023-01-19T09:27:54.120Z,1.60
2023-01-19T09:30:20.961Z,2.70
2023-01-19T09:32:47.898Z,2.30
2023-01-19T09:35:14.802Z,4.03
2023-01-19T09:37:45.461Z,1.35
2023-01-19T09:40:13.240Z,1.58
2023-01-19T09:42:50.840Z,1.33
2023-01-19T09:45:34.531Z,1.00
2023-01-19T09:48:02.965Z,1.67
2023-01-19T09:50:38.172Z,1.17
2023-01-19T09:53:16.854Z,2.22
2023-01-19T09:55:43.938Z,2.05
2023-01-19T09:58:19.304Z,2.58
2023-01-19T10:01:06.373Z,5.47
2023-01-19T10:03:38.348Z,3.67
2023-01-19T10:06:09.767Z,3.55
2023-01-19T10:08:55.718Z,3.33
2023-01-19T10:11:52.956Z,3.72
2023-01-19T10:14:40.122Z,3.20
2023-01-19T10:17:49.776Z,2.90
2023-01-19T10:20:27.904Z,2.28
2023-01-19T10:22:57.311Z,2.65
2023-01-19T10:25:24.663Z,2.10
2023-01-19T10:27:51.938Z,1.73
2023-01-19T10:30:29.075Z,2.30
2023-01-19T10:32:56.008Z,2.53
2023-01-19T10:35:25.134Z,2.30
2023-01-19T10:37:57.624Z,1.80
2023-01-19T10:40:36.346Z,3.92
2023-01-19T10:43:35.071Z,3.17
2023-01-19T10:46:30.788Z,3.00
2023-01-19T10:48:57.631Z,3.25
2023-01-19T10:51:24.627Z,2.58
2023-01-19T10:54:03.165Z,3.42
2023-01-19T10:56:38.506Z,5.13
2023-01-19T10:59:07.201Z,3.15
2023-01-19T11:01:37.105Z,4.55
2023-01-19T11:04:38.893Z,3.20
2023-01-19T11:07:35.124Z,4.88
2023-01-19T11:10:17.507Z,4.97
2023-01-19T11:12:46.227Z,3.47
2023-01-19T11:15:21.347Z,8.77
2023-01-19T11:17:49.179Z,4.28
2023-01-19T11:20:25.984Z,3.95
2023-01-19T11:23:06.340Z,4.93
2023-01-19T11:25:35.668Z,7.57
2023-01-19T11:28:03.555Z,7.55
2023-01-19T11:30:31.035Z,8.98
2023-01-19T11:32:58.299Z,9.85
2023-01-19T11:35:41.505Z,5.95
2023-01-19T11:38:23.586Z,7.40
2023-01-19T11:40:59.147Z,5.53
2023-01-19T11:43:43.316Z,4.05
2023-01-19T11:46:16.402Z,5.13
2023-01-19T11:48:57.424Z,4.93
2023-01-19T11:51:27.903Z,3.85
2023-01-19T11:53:54.738Z,5.70
2023-01-19T11:56:26.568Z,3.13
2023-01-19T11:58:53.385Z,2.42
2023-01-19T12:01:33.197Z,4.07
2023-01-19T12:04:20.087Z,4.00
2023-01-19T12:06:55.822Z,3.83
2023-01-19T12:09:29.107Z,7.35
2023-01-19T12:12:14.332Z,7.00
2023-01-19T12:15:05.136Z,6.65
2023-01-19T12:17:40.255Z,6.78
2023-01-19T12:20:44.494Z,7.05
2023-01-19T12:23:11.290Z,5.50
2023-01-19T12:25:46.734Z,6.05
2023-01-19T12:28:16.886Z,4.95
2023-01-19T12:30:44.498Z,6.90
2023-01-19T12:33:37.636Z,5.32
2023-01-19T12:36:04.607Z,4.43
2023-01-19T12:38:36.833Z,5.43
2023-01-19T12:41:31.975Z,3.92
2023-01-19T12:44:19.732Z,3.22
2023-01-19T12:46:47.068Z,4.95
2023-01-19T12:49:28.455Z,3.30
2023-01-19T12:52:16.901Z,7.60
2023-01-19T12:55:15.339Z,4.38
2023-01-19T12:57:56.758Z,4.45
2023-01-19T13:00:23.494Z,5.15
2023-01-19T13:02:57.491Z,4.95
2023-01-19T13:05:39.527Z,4.68
2023-01-19T13:08:06.471Z,4.65
2023-01-19T13:11:09.536Z,5.28
2023-01-19T13:13:53.712Z,9.13
2023-01-19T13:16:20.748Z,5.82
2023-01-19T13:19:00.613Z,7.25
2023-01-19T13:21:40.349Z,5.72
2023-01-19T13:24:19.406Z,5.18
2023-01-19T13:26:49.092Z,7.75
2023-01-19T13:29:36.212Z,6.35
2023-01-19T13:32:13.062Z,6.72
2023-01-19T13:34:44.668Z,3.45
2023-01-19T13:37:31.316Z,5.07
2023-01-19T13:39:58.560Z,5.95
2023-01-19T13:42:25.511Z,4.68
2023-01-19T13:44:57.860Z,4.93
2023-01-19T13:47:52.258Z,4.95
2023-01-19T13:50:25.065Z,8.65
2023-01-19T13:52:54.517Z,5.53
2023-01-19T13:55:22.066Z,5.47
2023-01-19T13:57:51.292Z,3.80
2023-01-19T14:00:25.755Z,5.47
2023-01-19T14:03:00.856Z,4.68
2023-01-19T14:05:37.125Z,7.22
2023-01-19T14:08:13.535Z,8.32
2023-01-19T14:10:44.963Z,6.80
2023-01-19T14:13:14.716Z,6.30
2023-01-19T14:15:42.335Z,6.05
2023-01-19T14:18:18.493Z,4.13
2023-01-19T14:21:10.739Z,4.10
2023-01-19T14:24:02.229Z,4.03
2023-01-19T14:26:38.858Z,3.15
2023-01-19T14:29:27.626Z,4.70
2023-01-19T14:32:00.616Z,2.67
2023-01-19T14:34:35.919Z,4.88
2023-01-19T14:37:20.247Z,3.92
2023-01-19T14:39:50.607Z,4.28
2023-01-19T14:42:30.857Z,4.35
2023-01-19T14:45:08.059Z,4.15
2023-01-19T14:47:37.484Z,4.55
2023-01-19T14:50:25.424Z,4.40
2023-01-19T14:53:18.577Z,3.53
2023-01-19T14:55:55.956Z,4.05
2023-01-19T14:58:26.059Z,4.25
2023-01-19T15:00:56.434Z,8.00
2023-01-19T15:03:32.000Z,4.57
2023-01-19T15:06:27.756Z,2.78
2023-01-19T15:08:55.510Z,4.20
2023-01-19T15:11:24.051Z,3.50
2023-01-19T15:13:51.744Z,2.20
2023-01-19T15:16:19.098Z,2.25
2023-01-19T15:18:46.101Z,2.20
2023-01-19T15:21:15.797Z,3.90
2023-01-19T15:23:42.653Z,2.97
2023-01-19T15:26:17.299Z,2.50
2023-01-19T15:28:45.489Z,3.60
2023-01-19T15:31:23.767Z,3.78
2023-01-19T15:33:50.797Z,3.50
2023-01-19T15:36:20.598Z,4.43
2023-01-19T15:38:50.158Z,5.18
2023-01-19T15:41:27.119Z,14.82
2023-01-19T15:43:54.310Z,9.93
2023-01-19T15:46:21.697Z,6.75
2023-01-19T15:48:50.437Z,8.73
2023-01-19T15:51:19.814Z,8.52
2023-01-19T15:53:47.264Z,6.45
2023-01-19T15:56:19.615Z,5.57
2023-01-19T15:58:46.499Z,7.53
2023-01-19T16:01:16.205Z,6.60
2023-01-19T16:03:43.428Z,4.47
2023-01-19T16:06:10.919Z,5.45
2023-01-19T16:08:38.030Z,5.43
2023-01-19T16:11:15.769Z,6.53
2023-01-19T16:13:46.289Z,4.97
2023-01-19T16:16:24.460Z,7.88
2023-01-19T16:18:51.518Z,5.43
2023-01-19T16:21:18.481Z,5.28
2023-01-19T16:23:45.306Z,7.50
2023-01-19T16:26:30.683Z,6.28
2023-01-19T16:28:58.848Z,6.50
2023-01-19T16:31:26.233Z,6.05
2023-01-19T16:33:53.175Z,5.82
2023-01-19T16:36:23.007Z,7.15
2023-01-19T16:38:50.096Z,6.28
2023-01-19T16:41:17.580Z,8.95
2023-01-19T16:43:44.483Z,6.35
2023-01-19T16:46:26.315Z,6.50
2023-01-19T16:48:53.298Z,8.15
2023-01-19T16:51:20.113Z,6.50
2023-01-19T16:53:50.251Z,4.75
2023-01-19T16:56:17.386Z,7.25
2023-01-19T16:58:44.299Z,5.70
2023-01-19T17:01:18.941Z,5.20
2023-01-19T17:03:47.177Z,4.90
2023-01-19T17:06:18.272Z,4.85
2023-01-19T17:08:45.653Z,5.10
2023-01-19T17:11:15.755Z,5.80
2023-01-19T17:13:42.535Z,4.82
2023-01-19T17:16:09.841Z,4.80
2023-01-19T17:18:38.034Z,4.63
2023-01-19T17:21:07.512Z,4.68
2023-01-19T17:23:38.993Z,6.65
2023-01-19T17:26:06.035Z,6.53
2023-01-19T17:28:32.920Z,5.63
2023-01-19T17:31:17.872Z,5.28
2023-01-19T17:33:46.748Z,6.80
2023-01-19T17:36:17.362Z,6.47
2023-01-19T17:38:45.260Z,4.07
2023-01-19T17:41:13.733Z,4.78
2023-01-19T17:43:40.664Z,6.68
2023-01-19T17:46:12.167Z,6.93
2023-01-19T17:48:39.729Z,7.43
2023-01-19T17:51:09.123Z,7.50
2023-01-19T17:53:41.126Z,7.22
2023-01-19T17:56:15.265Z,5.90
2023-01-19T18:01:31.971Z,7.38
2023-01-19T18:03:59.207Z,8.15
2023-01-19T18:06:26.064Z,9.32
2023-01-19T18:08:53.003Z,6.93
2023-01-19T18:11:21.052Z,6.82
2023-01-19T18:13:49.873Z,6.32
2023-01-19T18:16:26.434Z,8.75
2023-01-19T18:18:54.895Z,10.48
2023-01-19T18:21:39.029Z,12.73
2023-01-19T18:24:06.630Z,11.32
2023-01-19T18:26:34.899Z,16.85
2023-01-19T18:29:01.873Z,13.52
2023-01-19T18:31:30.307Z,13.38
2023-01-19T18:33:57.185Z,12.98
2023-01-19T18:36:24.012Z,13.98
2023-01-19T18:38:51.217Z,11.00
2023-01-19T18:41:20.259Z,12.20
2023-01-19T18:43:47.991Z,10.98
2023-01-19T18:46:15.579Z,14.40
2023-01-19T18:48:42.578Z,13.70
2023-01-19T18:51:12.069Z,12.43
2023-01-19T18:53:39.176Z,16.63
2023-01-19T18:56:07.241Z,14.85
2023-01-19T18:58:37.791Z,18.23
2023-01-19T19:01:05.250Z,14.85
2023-01-19T19:03:32.050Z,13.43
2023-01-19T19:06:03.204Z,11.82
2023-01-19T19:08:30.187Z,12.85
2023-01-19T19:10:56.985Z,10.98
2023-01-19T19:13:23.921Z,10.63
2023-01-19T19:15:52.589Z,7.25
2023-01-19T19:18:19.573Z,8.13
2023-01-19T19:20:46.412Z,6.28
2023-01-19T19:23:13.200Z,7.32
2023-01-19T19:25:39.999Z,8.15
2023-01-19T19:28:07.131Z,6.10
2023-01-19T19:30:35.694Z,9.20
2023-01-19T19:33:03.223Z,5.95
2023-01-19T19:35:30.093Z,6.93
2023-01-19T19:37:57.817Z,5.45
2023-01-19T19:40:26.754Z,7.47
2023-01-19T19:42:53.797Z,6.38
2023-01-19T19:45:20.622Z,6.88
2023-01-19T19:47:47.463Z,7.03
2023-01-19T19:50:14.670Z,6.30
2023-01-19T19:52:42.383Z,7.68
2023-01-19T19:55:10.899Z,11.00
2023-01-19T19:57:37.945Z,13.60
2023-01-19T20:00:06.026Z,11.68
2023-01-19T20:02:32.864Z,13.45
2023-01-19T20:04:59.764Z,14.73
2023-01-19T20:07:26.752Z,27.02
2023-01-19T20:09:55.145Z,27.27
2023-01-19T20:12:22.401Z,22.45
2023-01-19T20:14:49.331Z,27.27
2023-01-19T20:17:16.392Z,21.25
2023-01-19T20:19:43.825Z,16.08
2023-01-19T20:22:10.627Z,16.75
2023-01-19T20:24:37.455Z,18.02
2023-01-19T20:27:04.441Z,18.13
2023-01-19T20:29:31.372Z,15.77
2023-01-19T20:31:58.397Z,16.65
2023-01-19T20:34:29.105Z,16.90
2023-01-19T20:36:56.994Z,26.80
2023-01-19T20:39:24.562Z,17.15
2023-01-19T20:41:52.591Z,21.50
2023-01-19T20:44:23.066Z,21.90
2023-01-19T20:46:50.560Z,17.10
2023-01-19T20:49:17.487Z,13.82
2023-01-19T20:51:46.766Z,14.50
2023-01-19T20:54:15.268Z,15.38
2023-01-19T20:56:42.319Z,15.35
2023-01-19T20:59:10.604Z,24.63
2023-01-19T21:01:38.197Z,44.50
2023-01-19T21:04:05.378Z,33.70
2023-01-19T21:06:32.547Z,21.42
2023-01-19T21:08:59.651Z,19.05
2023-01-19T21:11:26.716Z,87.22
2023-01-19T21:13:56.134Z,33.22
2023-01-19T21:16:25.230Z,66.50
2023-01-19T21:18:52.231Z,34.15
2023-01-19T21:21:29.783Z,41.00
2023-01-19T21:24:00.033Z,76.28
2023-01-19T21:26:29.755Z,61.35
2023-01-19T21:28:58.179Z,33.00
2023-01-19T21:31:27.527Z,31.80
2023-01-19T21:33:55.169Z,67.63
2023-01-19T21:36:22.705Z,39.15
2023-01-19T21:38:51.604Z,20.77
2023-01-19T21:41:18.888Z,23.05
2023-01-19T21:43:46.415Z,21.10
2023-01-19T21:46:28.954Z,18.95
2023-01-19T21:48:59.079Z,14.95
2023-01-19T21:51:26.245Z,14.40
2023-01-19T21:53:55.065Z,14.38
2023-01-19T21:56:23.018Z,23.60
2023-01-19T21:58:49.889Z,18.35
2023-01-19T22:01:17.837Z,16.10
2023-01-19T22:03:44.898Z,17.40
2023-01-19T22:06:14.840Z,21.85
2023-01-19T22:08:42.082Z,17.45
2023-01-19T22:11:11.801Z,22.20
2023-01-19T22:13:38.900Z,18.58
2023-01-19T22:16:09.030Z,16.58
2023-01-19T22:18:37.751Z,13.30
2023-01-19T22:21:11.805Z,18.08
2023-01-19T22:26:06.391Z,13.25
2023-01-19T22:28:33.968Z,15.10
2023-01-19T22:31:18.174Z,13.48
2023-01-19T22:33:45.312Z,10.88
2023-01-19T22:36:16.558Z,21.27
2023-01-19T22:38:44.540Z,16.60
2023-01-19T22:41:17.728Z,10.40
2023-01-19T22:43:44.907Z,12.20
2023-01-19T22:46:12.146Z,11.90
2023-01-19T22:48:40.505Z,14.07
2023-01-19T22:51:07.726Z,15.32
2023-01-19T22:53:34.684Z,13.07
2023-01-19T22:56:09.822Z,11.65
2023-01-19T22:58:36.620Z,14.13
2023-01-19T23:01:20.235Z,18.45
2023-01-19T23:03:47.599Z,15.57
2023-01-19T23:06:18.703Z,12.30
2023-01-19T23:08:46.155Z,11.35
2023-01-19T23:11:21.772Z,11.20
2023-01-19T23:13:49.368Z,10.20
2023-01-19T23:16:16.396Z,13.65
2023-01-19T23:18:43.802Z,11.00
2023-01-19T23:21:14.015Z,10.45
2023-01-19T23:23:41.488Z,11.25
2023-01-19T23:26:19.673Z,9.77
2023-01-19T23:28:47.242Z,10.30
2023-01-19T23:31:24.185Z,11.95
2023-01-19T23:33:53.999Z,10.50
2023-01-19T23:36:22.479Z,10.68
2023-01-19T23:38:52.131Z,11.82
2023-01-19T23:41:19.496Z,9.90
2023-01-19T23:43:46.897Z,10.70
2023-01-19T23:46:15.412Z,9.80
2023-01-19T23:48:42.421Z,12.00
2023-01-19T23:51:19.071Z,12.95
2023-01-19T23:53:46.988Z,11.15
2023-01-19T23:56:19.475Z,10.27
2023-01-19T23:58:49.219Z,12.25
